createdAt,value
2023-04-03T00:02:29.866Z,66.27
2023-04-03T00:05:01.627Z,67.29
2023-04-03T00:07:33.379Z,67.60
2023-04-03T00:10:07.451Z,67.60
2023-04-03T00:12:39.239Z,67.57
2023-04-03T00:15:13.520Z,67.57
2023-04-03T00:17:45.523Z,66.93
2023-04-03T00:20:17.262Z,67.51
2023-04-03T00:22:49.079Z,67.36
2023-04-03T00:25:22.451Z,67.54
2023-04-03T00:27:55.920Z,67.42
2023-04-03T00:30:28.385Z,67.31
2023-04-03T00:33:01.556Z,67.19
2023-04-03T00:35:34.155Z,67.38
2023-04-03T00:38:05.978Z,67.45
2023-04-03T00:40:45.003Z,67.64
2023-04-03T00:43:20.805Z,67.95
2023-04-03T00:45:56.066Z,67.83
2023-04-03T00:48:32.766Z,67.73
2023-04-03T00:51:08.033Z,67.61
2023-04-03T00:53:46.428Z,68.21
2023-04-03T00:56:23.653Z,67.85
2023-04-03T00:59:01.270Z,68.31
2023-04-03T01:01:34.240Z,67.95
2023-04-03T01:04:07.471Z,69.09
2023-04-03T01:06:41.353Z,68.37
2023-04-03T01:09:12.995Z,69.26
2023-04-03T01:11:46.193Z,68.10
2023-04-03T01:14:18.109Z,69.49
2023-04-03T01:16:57.501Z,69.22
2023-04-03T01:19:30.064Z,69.79
2023-04-03T01:22:21.711Z,69.95
2023-04-03T01:24:54.255Z,69.39
2023-04-03T01:27:27.166Z,69.77
2023-04-03T01:29:59.187Z,70.04
2023-04-03T01:32:32.170Z,69.66
2023-04-03T01:35:04.233Z,70.09
2023-04-03T01:37:36.037Z,70.23
2023-04-03T01:40:09.094Z,70.30
2023-04-03T01:42:40.743Z,70.55
2023-04-03T01:45:14.092Z,70.24
2023-04-03T01:47:47.103Z,70.32
2023-04-03T01:50:18.757Z,70.61
2023-04-03T01:52:50.582Z,70.26
2023-04-03T01:55:22.357Z,70.85
2023-04-03T01:57:54.180Z,70.87
2023-04-03T02:00:25.975Z,71.16
2023-04-03T02:02:59.051Z,71.25
2023-04-03T02:05:31.145Z,71.46
2023-04-03T02:08:03.006Z,71.48
2023-04-03T02:10:35.100Z,70.99
2023-04-03T02:13:07.267Z,70.75
2023-04-03T02:15:41.750Z,71.01
2023-04-03T02:18:14.703Z,70.93
2023-04-03T02:20:46.658Z,71.53
2023-04-03T02:23:18.279Z,71.71
2023-04-03T02:25:50.897Z,71.84
2023-04-03T02:28:22.716Z,71.63
2023-04-03T02:30:54.587Z,71.69
2023-04-03T02:33:27.807Z,72.15
2023-04-03T02:36:01.230Z,72.82
2023-04-03T02:38:33.363Z,72.56
2023-04-03T02:41:07.949Z,71.65
2023-04-03T02:43:40.218Z,71.83
2023-04-03T02:46:11.997Z,71.28
2023-04-03T02:48:45.314Z,72.52
2023-04-03T02:51:17.102Z,72.55
2023-04-03T02:53:48.930Z,72.32
2023-04-03T02:56:21.201Z,73.48
2023-04-03T02:58:59.984Z,73.59
2023-04-03T03:01:33.408Z,72.87
2023-04-03T03:04:07.783Z,73.18
2023-04-03T03:06:39.618Z,73.32
2023-04-03T03:09:11.326Z,73.92
2023-04-03T03:11:43.194Z,72.68
2023-04-03T03:14:14.956Z,73.68
2023-04-03T03:16:46.900Z,74.03
2023-04-03T03:19:20.017Z,73.71
2023-04-03T03:21:52.027Z,73.23
2023-04-03T03:24:23.609Z,73.47
2023-04-03T03:26:55.422Z,74.08
2023-04-03T03:29:27.136Z,73.47
2023-04-03T03:31:59.017Z,73.45
2023-04-03T03:34:32.226Z,73.00
2023-04-03T03:37:04.062Z,74.59
2023-04-03T03:39:36.072Z,74.48
2023-04-03T03:42:07.986Z,74.26
2023-04-03T03:44:39.795Z,73.90
2023-04-03T03:47:12.011Z,74.03
2023-04-03T03:49:45.067Z,73.89
2023-04-03T03:52:17.034Z,73.53
2023-04-03T03:54:48.856Z,73.61
2023-04-03T03:57:22.300Z,73.47
2023-04-03T03:59:54.211Z,74.56
2023-04-03T04:02:26.155Z,73.73
2023-04-03T04:04:59.156Z,74.30
2023-04-03T04:07:30.814Z,73.89
2023-04-03T04:10:02.708Z,73.83
2023-04-03T04:12:36.479Z,75.33
2023-04-03T04:15:09.072Z,75.63
2023-04-03T04:17:40.810Z,75.04
2023-04-03T04:20:13.847Z,74.62
2023-04-03T04:22:45.723Z,75.44
2023-04-03T04:25:17.569Z,75.42
2023-04-03T04:27:49.364Z,76.05
2023-04-03T04:30:21.237Z,76.10
2023-04-03T04:32:53.026Z,75.97
2023-04-03T04:35:26.313Z,75.11
2023-04-03T04:37:58.137Z,75.00
2023-04-03T04:40:31.113Z,76.36
2023-04-03T04:43:02.971Z,75.21
2023-04-03T04:45:35.000Z,76.13
2023-04-03T04:48:07.100Z,75.63
2023-04-03T04:50:40.412Z,75.44
2023-04-03T04:53:12.215Z,76.07
2023-04-03T04:55:44.130Z,76.11
2023-04-03T04:58:16.127Z,75.73
2023-04-03T05:00:48.448Z,75.91
2023-04-03T05:03:20.427Z,75.42
2023-04-03T05:05:53.674Z,75.67
2023-04-03T05:08:25.561Z,75.69
2023-04-03T05:10:57.520Z,75.54
2023-04-03T05:13:29.191Z,76.05
2023-04-03T05:16:01.107Z,75.48
2023-04-03T05:18:33.028Z,75.90
2023-04-03T05:21:06.578Z,76.48
2023-04-03T05:23:38.157Z,76.63
2023-04-03T05:26:10.197Z,76.19
2023-04-03T05:28:42.043Z,77.09
2023-04-03T05:31:15.000Z,76.55
2023-04-03T05:33:47.034Z,77.35
2023-04-03T05:36:20.133Z,76.55
2023-04-03T05:38:52.246Z,76.88
2023-04-03T05:41:24.352Z,76.63
2023-04-03T05:43:55.880Z,77.85
2023-04-03T05:46:27.794Z,77.67
2023-04-03T05:48:59.571Z,77.30
2023-04-03T05:51:38.609Z,77.74
2023-04-03T05:54:18.343Z,77.32
2023-04-03T05:56:50.170Z,77.79
2023-04-03T05:59:23.413Z,78.11
2023-04-03T06:01:55.380Z,79.00
2023-04-03T06:04:27.421Z,79.57
2023-04-03T06:07:01.907Z,79.23
2023-04-03T06:09:34.209Z,79.70
2023-04-03T06:12:06.078Z,78.84
2023-04-03T06:14:37.882Z,78.71
2023-04-03T06:17:10.287Z,78.56
2023-04-03T06:19:43.973Z,78.51
2023-04-03T06:22:18.436Z,79.19
2023-04-03T06:24:51.682Z,79.30
2023-04-03T06:27:23.637Z,78.95
2023-04-03T06:29:56.668Z,78.84
2023-04-03T06:32:28.832Z,78.97
2023-04-03T06:35:01.133Z,78.67
2023-04-03T06:37:34.065Z,78.29
2023-04-03T06:40:06.395Z,78.58
2023-04-03T06:42:38.078Z,78.34
2023-04-03T06:45:12.312Z,78.72
2023-04-03T06:47:44.301Z,78.58
2023-04-03T06:50:18.110Z,78.64
2023-04-03T06:52:51.395Z,79.07
2023-04-03T06:55:23.910Z,78.70
2023-04-03T06:57:56.179Z,78.57
2023-04-03T07:00:28.685Z,78.01
2023-04-03T07:03:00.571Z,78.08
2023-04-03T07:05:33.953Z,77.32
2023-04-03T07:08:07.284Z,77.32
2023-04-03T07:10:39.921Z,76.48
2023-04-03T07:13:11.925Z,76.66
2023-04-03T07:15:43.842Z,76.84
2023-04-03T07:18:17.903Z,76.52
2023-04-03T07:20:49.754Z,76.04
2023-04-03T07:23:23.764Z,75.02
2023-04-03T07:25:56.669Z,75.31
2023-04-03T07:28:29.274Z,75.29
2023-04-03T07:31:09.486Z,73.54
2023-04-03T07:33:42.711Z,73.69
2023-04-03T07:36:19.693Z,74.36
2023-04-03T07:38:52.966Z,73.21
2023-04-03T07:41:25.890Z,72.51
2023-04-03T07:43:57.765Z,73.20
2023-04-03T07:46:29.603Z,72.02
2023-04-03T07:49:01.494Z,69.59
2023-04-03T07:51:33.096Z,70.69
2023-04-03T07:54:06.131Z,70.58
2023-04-03T07:56:38.015Z,70.04
2023-04-03T07:59:12.391Z,69.52
2023-04-03T08:01:45.760Z,69.55
2023-04-03T08:04:17.662Z,69.25
2023-04-03T08:06:49.281Z,67.96
2023-04-03T08:09:23.098Z,68.44
2023-04-03T08:11:55.312Z,68.33
2023-04-03T08:14:28.553Z,67.55
2023-04-03T08:17:00.440Z,67.09
2023-04-03T08:19:33.068Z,68.63
2023-04-03T08:22:05.893Z,67.83
2023-04-03T08:24:39.381Z,68.59
2023-04-03T08:27:16.046Z,67.77
2023-04-03T08:29:47.929Z,67.19
2023-04-03T08:32:19.947Z,65.47
2023-04-03T08:34:54.086Z,67.99
2023-04-03T08:37:26.367Z,65.50
2023-04-03T08:40:00.180Z,64.45
2023-04-03T08:42:47.260Z,66.14
2023-04-03T08:45:29.520Z,64.35
2023-04-03T08:48:09.282Z,65.01
2023-04-03T08:50:47.415Z,63.79
2023-04-03T08:53:24.838Z,64.69
2023-04-03T08:56:00.366Z,62.84
2023-04-03T08:58:37.662Z,60.50
2023-04-03T09:01:21.087Z,58.95
2023-04-03T09:03:53.127Z,61.38
2023-04-03T09:06:30.093Z,64.26
2023-04-03T09:09:15.985Z,59.55
2023-04-03T09:12:02.242Z,58.77
2023-04-03T09:14:47.169Z,56.21
2023-04-03T09:17:29.838Z,55.78
2023-04-03T09:20:20.688Z,56.10
2023-04-03T09:22:53.870Z,55.00
2023-04-03T09:25:30.586Z,57.54
2023-04-03T09:28:10.665Z,55.66
2023-04-03T09:30:42.381Z,54.34
2023-04-03T09:33:16.157Z,53.89
2023-04-03T09:35:49.489Z,55.50
2023-04-03T09:38:23.924Z,53.37
2023-04-03T09:41:09.231Z,52.30
2023-04-03T09:43:56.807Z,52.86
2023-04-03T09:46:38.005Z,53.18
2023-04-03T09:49:15.083Z,53.86
2023-04-03T09:51:46.717Z,51.79
2023-04-03T09:54:36.925Z,49.96
2023-04-03T09:57:18.722Z,51.77
2023-04-03T10:00:05.635Z,51.13
2023-04-03T10:02:45.788Z,50.44
2023-04-03T10:05:37.457Z,48.98
2023-04-03T10:08:28.807Z,48.51
2023-04-03T10:11:14.321Z,50.18
2023-04-03T10:14:02.560Z,47.92
2023-04-03T10:16:44.552Z,50.61
2023-04-03T10:19:35.769Z,49.36
2023-04-03T10:22:29.501Z,48.49
2023-04-03T10:25:09.871Z,49.25
2023-04-03T10:27:54.356Z,50.89
2023-04-03T10:30:38.611Z,47.28
2023-04-03T10:33:29.853Z,48.76
2023-04-03T10:36:19.248Z,51.30
2023-04-03T10:39:04.255Z,47.68
2023-04-03T10:41:54.156Z,48.28
2023-04-03T10:44:45.016Z,47.70
2023-04-03T10:47:27.321Z,49.02
2023-04-03T10:50:17.988Z,48.20
2023-04-03T10:52:59.636Z,48.16
2023-04-03T10:55:45.072Z,48.22
2023-04-03T10:58:29.803Z,49.23
2023-04-03T11:01:08.209Z,48.68
2023-04-03T11:03:46.396Z,49.14
2023-04-03T11:06:25.413Z,49.12
2023-04-03T11:09:04.580Z,47.43
2023-04-03T11:11:41.842Z,47.31
2023-04-03T11:14:26.620Z,47.05
2023-04-03T11:17:13.207Z,50.02
2023-04-03T11:19:53.668Z,45.86
2023-04-03T11:22:34.987Z,45.95
2023-04-03T11:25:22.800Z,45.42
2023-04-03T11:28:00.403Z,47.18
2023-04-03T11:30:42.960Z,45.40
2023-04-03T11:33:43.826Z,45.33
2023-04-03T11:36:32.198Z,45.07
2023-04-03T11:39:18.750Z,47.11
2023-04-03T11:41:57.533Z,51.16
2023-04-03T11:44:39.891Z,48.97
2023-04-03T11:47:13.284Z,49.12
2023-04-03T11:50:06.622Z,46.95
2023-04-03T11:53:04.983Z,45.75
2023-04-03T11:56:00.838Z,44.50
2023-04-03T11:58:32.807Z,48.36
2023-04-03T12:01:13.582Z,48.58
2023-04-03T12:04:16.727Z,50.28
2023-04-03T12:07:20.771Z,44.49
2023-04-03T12:10:32.201Z,44.54
2023-04-03T12:13:17.876Z,46.58
2023-04-03T12:15:58.121Z,43.39
2023-04-03T12:19:01.024Z,45.05
2023-04-03T12:22:16.674Z,44.85
2023-04-03T12:24:51.160Z,42.13
2023-04-03T12:27:44.299Z,42.16
2023-04-03T12:30:33.703Z,41.26
2023-04-03T12:33:26.256Z,42.15
2023-04-03T12:36:09.767Z,42.72
2023-04-03T12:39:06.266Z,40.88
2023-04-03T12:41:52.657Z,40.53
2023-04-03T12:44:39.900Z,43.26
2023-04-03T12:47:26.320Z,43.33
2023-04-03T12:49:59.530Z,39.98
2023-04-03T12:52:41.819Z,42.51
2023-04-03T12:55:21.089Z,43.28
2023-04-03T12:57:52.893Z,47.21
2023-04-03T13:00:40.549Z,42.63
2023-04-03T13:03:28.762Z,43.62
2023-04-03T13:06:04.657Z,43.44
2023-04-03T13:08:36.835Z,44.66
2023-04-03T13:11:13.850Z,41.08
2023-04-03T13:13:56.554Z,41.08
2023-04-03T13:16:28.880Z,41.44
2023-04-03T13:19:02.173Z,39.59
2023-04-03T13:21:38.939Z,42.72
2023-04-03T13:24:15.726Z,39.72
2023-04-03T13:26:48.630Z,38.26
2023-04-03T13:29:32.132Z,38.00
2023-04-03T13:32:07.977Z,40.66
2023-04-03T13:34:47.563Z,37.60
2023-04-03T13:37:27.213Z,37.84
2023-04-03T13:40:14.694Z,39.29
2023-04-03T13:42:49.131Z,40.11
2023-04-03T13:45:30.000Z,38.48
2023-04-03T13:48:23.948Z,38.80
2023-04-03T13:51:00.449Z,39.38
2023-04-03T13:53:34.929Z,38.91
2023-04-03T13:56:18.959Z,39.65
2023-04-03T13:59:05.093Z,39.52
2023-04-03T14:01:45.980Z,38.70
2023-04-03T14:04:25.636Z,42.69
2023-04-03T14:06:59.282Z,39.49
2023-04-03T14:09:32.336Z,38.79
2023-04-03T14:12:17.977Z,41.03
2023-04-03T14:14:57.854Z,36.29
2023-04-03T14:17:32.040Z,41.60
2023-04-03T14:20:05.037Z,38.23
2023-04-03T14:22:38.719Z,40.09
2023-04-03T14:25:12.123Z,40.35
2023-04-03T14:27:49.742Z,39.62
2023-04-03T14:30:26.922Z,39.18
2023-04-03T14:33:01.017Z,38.29
2023-04-03T14:35:33.316Z,43.76
2023-04-03T14:38:14.790Z,38.95
2023-04-03T14:40:46.416Z,38.53
2023-04-03T14:43:20.959Z,38.27
2023-04-03T14:45:53.315Z,40.16
2023-04-03T14:48:30.421Z,38.64
2023-04-03T14:51:05.728Z,39.36
2023-04-03T14:53:39.562Z,39.38
2023-04-03T14:56:22.816Z,38.28
2023-04-03T14:58:57.736Z,35.22
2023-04-03T15:01:30.935Z,36.09
2023-04-03T15:04:02.989Z,36.98
2023-04-03T15:06:36.412Z,37.21
2023-04-03T15:09:20.186Z,34.76
2023-04-03T15:11:56.081Z,38.44
2023-04-03T15:14:37.087Z,36.50
2023-04-03T15:17:21.535Z,37.95
2023-04-03T15:19:54.813Z,38.13
2023-04-03T15:22:26.731Z,38.67
2023-04-03T15:24:59.781Z,39.50
2023-04-03T15:27:31.562Z,38.59
2023-04-03T15:30:03.378Z,39.67
2023-04-03T15:32:36.072Z,40.04
2023-04-03T15:35:08.885Z,38.92
2023-04-03T15:37:40.766Z,41.63
2023-04-03T15:40:15.454Z,39.94
2023-04-03T15:42:47.511Z,39.60
2023-04-03T15:45:19.495Z,38.55
2023-04-03T15:47:51.640Z,38.37
2023-04-03T15:50:24.951Z,38.56
2023-04-03T15:52:58.781Z,38.18
2023-04-03T15:55:35.384Z,38.17
2023-04-03T15:58:07.384Z,38.08
2023-04-03T16:00:40.662Z,37.88
2023-04-03T16:03:18.290Z,37.64
2023-04-03T16:05:50.658Z,41.00
2023-04-03T16:08:23.838Z,37.49
2023-04-03T16:10:56.796Z,38.33
2023-04-03T16:13:28.614Z,39.81
2023-04-03T16:16:01.139Z,39.99
2023-04-03T16:18:36.030Z,38.84
2023-04-03T16:21:10.728Z,38.95
2023-04-03T16:23:42.690Z,39.39
2023-04-03T16:26:16.316Z,39.10
2023-04-03T16:28:48.021Z,39.79
2023-04-03T16:31:19.937Z,39.63
2023-04-03T16:33:51.905Z,41.90
2023-04-03T16:36:23.770Z,40.79
2023-04-03T16:38:55.819Z,40.79
2023-04-03T16:41:28.719Z,39.98
2023-04-03T16:44:00.586Z,40.47
2023-04-03T16:46:32.584Z,41.57
2023-04-03T16:49:04.567Z,41.58
2023-04-03T16:51:36.415Z,41.39
2023-04-03T16:54:10.660Z,41.66
2023-04-03T16:56:44.629Z,41.85
2023-04-03T16:59:18.422Z,42.21
2023-04-03T17:01:50.148Z,42.08
2023-04-03T17:04:21.919Z,42.32
2023-04-03T17:06:53.666Z,43.01
2023-04-03T17:09:25.813Z,42.34
2023-04-03T17:11:58.786Z,42.05
2023-04-03T17:14:30.493Z,42.28
2023-04-03T17:17:02.751Z,42.32
2023-04-03T17:19:34.862Z,41.73
2023-04-03T17:22:06.649Z,42.44
2023-04-03T17:24:38.516Z,43.29
2023-04-03T17:27:11.632Z,43.84
2023-04-03T17:29:43.379Z,44.10
2023-04-03T17:32:15.349Z,43.32
2023-04-03T17:34:49.064Z,43.79
2023-04-03T17:37:20.841Z,44.37
2023-04-03T17:39:52.845Z,42.98
2023-04-03T17:42:26.062Z,41.86
2023-04-03T17:44:58.035Z,42.84
2023-04-03T17:47:29.911Z,42.96
2023-04-03T17:50:02.099Z,43.94
2023-04-03T17:52:34.026Z,43.05
2023-04-03T17:55:06.112Z,44.46
2023-04-03T17:57:39.486Z,44.23
2023-04-03T18:00:11.849Z,43.69
2023-04-03T18:02:44.061Z,43.66
2023-04-03T18:05:16.270Z,44.02
2023-04-03T18:07:48.064Z,44.45
2023-04-03T18:10:18.144Z,44.10
2023-04-03T18:12:52.959Z,43.77
2023-04-03T18:15:24.793Z,43.26
2023-04-03T18:17:57.932Z,45.35
2023-04-03T18:20:29.930Z,45.39
2023-04-03T18:23:02.363Z,45.74
2023-04-03T18:25:34.250Z,45.10
2023-04-03T18:28:08.495Z,45.38
2023-04-03T18:30:40.773Z,44.08
2023-04-03T18:33:12.757Z,44.53
2023-04-03T18:35:44.864Z,44.99
2023-04-03T18:38:16.609Z,45.71
2023-04-03T18:40:50.071Z,44.60
2023-04-03T18:43:23.926Z,45.96
2023-04-03T18:45:56.864Z,45.77
2023-04-03T18:48:30.721Z,45.60
2023-04-03T18:51:03.278Z,46.44
2023-04-03T18:53:35.215Z,46.01
2023-04-03T18:56:07.750Z,45.25
2023-04-03T18:58:40.808Z,46.03
2023-04-03T19:01:12.440Z,46.43
2023-04-03T19:03:44.726Z,47.12
2023-04-03T19:06:16.856Z,46.13
2023-04-03T19:08:49.538Z,45.34
2023-04-03T19:11:21.133Z,47.04
2023-04-03T19:14:10.189Z,46.30
2023-04-03T19:16:46.328Z,46.70
2023-04-03T19:19:18.014Z,46.55
2023-04-03T19:21:49.855Z,47.00
2023-04-03T19:24:22.154Z,46.33
2023-04-03T19:26:54.136Z,46.13
2023-04-03T19:29:27.110Z,47.12
2023-04-03T19:31:58.974Z,47.56
2023-04-03T19:34:30.883Z,46.65
2023-04-03T19:37:02.878Z,46.73
2023-04-03T19:39:37.820Z,47.21
2023-04-03T19:42:10.352Z,46.84
2023-04-03T19:44:43.780Z,47.86
2023-04-03T19:47:16.286Z,48.01
2023-04-03T19:49:48.041Z,47.91
2023-04-03T19:52:19.994Z,47.75
2023-04-03T19:54:52.998Z,48.92
2023-04-03T19:57:26.964Z,49.25
2023-04-03T20:00:01.008Z,50.21
2023-04-03T20:02:32.660Z,49.17
2023-04-03T20:05:05.210Z,49.83
2023-04-03T20:07:37.406Z,50.55
2023-04-03T20:10:13.863Z,49.77
2023-04-03T20:12:46.254Z,49.47
2023-04-03T20:15:19.485Z,50.16
2023-04-03T20:17:51.328Z,50.96
2023-04-03T20:20:23.410Z,50.44
2023-04-03T20:22:56.976Z,50.92
2023-04-03T20:25:46.177Z,50.46
2023-04-03T20:28:23.942Z,50.66
2023-04-03T20:30:58.854Z,50.62
2023-04-03T20:33:30.562Z,50.14
2023-04-03T20:36:04.121Z,50.75
2023-04-03T20:38:36.353Z,50.42
2023-04-03T20:41:08.416Z,50.00
2023-04-03T20:43:42.659Z,50.70
2023-04-03T20:46:19.449Z,50.86
2023-04-03T20:48:51.342Z,50.67
2023-04-03T20:51:24.196Z,49.98
2023-04-03T20:53:56.720Z,49.81
2023-04-03T20:56:31.634Z,50.25
2023-04-03T20:59:04.702Z,49.97
2023-04-03T21:01:38.489Z,50.83
2023-04-03T21:04:16.985Z,51.17
2023-04-03T21:07:41.364Z,50.92
2023-04-03T21:11:05.402Z,51.44
2023-04-03T21:14:31.641Z,50.92
2023-04-03T21:16:59.436Z,51.83
2023-04-03T21:19:33.062Z,51.45
2023-04-03T21:22:05.191Z,51.46
2023-04-03T21:24:39.110Z,51.64
2023-04-03T21:27:11.341Z,51.83
2023-04-03T21:29:43.642Z,51.87
2023-04-03T21:32:15.571Z,52.08
2023-04-03T21:34:48.786Z,51.21
2023-04-03T21:37:21.617Z,51.61
2023-04-03T21:39:53.414Z,52.08
2023-04-03T21:42:25.281Z,52.73
2023-04-03T21:44:58.204Z,52.31
2023-04-03T21:47:30.178Z,52.26
2023-04-03T21:50:03.360Z,52.40
2023-04-03T21:52:37.108Z,52.61
2023-04-03T21:55:10.360Z,53.11
2023-04-03T21:57:42.463Z,53.17
2023-04-03T22:00:18.897Z,52.91
2023-04-03T22:02:55.076Z,53.66
2023-04-03T22:05:35.818Z,53.17
2023-04-03T22:08:09.458Z,53.78
2023-04-03T22:10:41.827Z,53.33
2023-04-03T22:13:13.831Z,53.58
2023-04-03T22:15:48.130Z,53.69
2023-04-03T22:18:19.806Z,55.05
2023-04-03T22:20:52.853Z,54.52
2023-04-03T22:23:24.792Z,55.15
2023-04-03T22:26:01.148Z,55.36
2023-04-03T22:28:34.837Z,54.57
2023-04-03T22:31:08.373Z,54.10
2023-04-03T22:33:44.315Z,53.77
2023-04-03T22:36:18.294Z,55.18
2023-04-03T22:38:50.384Z,54.81
2023-04-03T22:41:22.185Z,54.41
2023-04-03T22:43:54.601Z,55.77
2023-04-03T22:46:26.725Z,54.52
2023-04-03T22:48:58.803Z,54.46
2023-04-03T22:51:32.032Z,54.91
2023-04-03T22:54:04.108Z,54.59
2023-04-03T22:56:35.659Z,55.14
2023-04-03T22:59:08.085Z,55.32
2023-04-03T23:01:40.213Z,55.22
2023-04-03T23:04:12.281Z,55.87
2023-04-03T23:06:45.501Z,55.71
2023-04-03T23:09:17.876Z,56.05
2023-04-03T23:11:49.397Z,55.95
2023-04-03T23:14:21.978Z,55.56
2023-04-03T23:16:53.678Z,55.99
2023-04-03T23:19:25.343Z,56.31
2023-04-03T23:21:58.464Z,56.73
2023-04-03T23:24:30.274Z,56.11
2023-04-03T23:27:02.625Z,56.67
2023-04-03T23:29:34.498Z,57.49
2023-04-03T23:32:06.717Z,57.13
2023-04-03T23:34:40.142Z,57.32
2023-04-03T23:37:16.349Z,57.75
2023-04-03T23:39:48.217Z,57.59
2023-04-03T23:42:20.084Z,57.83
2023-04-03T23:44:51.923Z,58.82
2023-04-03T23:47:23.762Z,58.90
2023-04-03T23:49:55.764Z,58.55
2023-04-03T23:52:28.970Z,58.57
2023-04-03T23:55:00.891Z,59.50
2023-04-03T23:57:32.715Z,59.01
